sensor_id;sensor_type;location;lat;lon;timestamp;temperature;humidity
23079;DHT22;11707;50.830;4.364;2022-12-16T00:03:36;1.70;99.90
23079;DHT22;11707;50.830;4.364;2022-12-16T00:06:03;1.80;99.90
23079;DHT22;11707;50.830;4.364;2022-12-16T00:08:32;1.70;99.90
23079;DHT22;11707;50.830;4.364;2022-12-16T00:10:59;1.60;99.90
23079;DHT22;11707;50.830;4.364;2022-12-16T00:13:26;1.40;99.90
23079;DHT22;11707;50.830;4.364;2022-12-16T00:15:52;1.10;99.90
23079;DHT22;11707;50.830;4.364;2022-12-16T00:18:18;1.30;99.90
23079;DHT22;11707;50.830;4.364;2022-12-16T00:20:51;1.60;99.90
23079;DHT22;11707;50.830;4.364;2022-12-16T00:23:17;1.80;99.90
23079;DHT22;11707;50.830;4.364;2022-12-16T00:25:43;2.00;99.90
23079;DHT22;11707;50.830;4.364;2022-12-16T00:28:10;2.20;99.90
23079;DHT22;11707;50.830;4.364;2022-12-16T00:30:37;2.10;99.90
23079;DHT22;11707;50.830;4.364;2022-12-16T00:33:03;2.20;99.90
23079;DHT22;11707;50.830;4.364;2022-12-16T00:35:29;2.30;99.90
23079;DHT22;11707;50.830;4.364;2022-12-16T00:37:56;2.40;99.90
23079;DHT22;11707;50.830;4.364;2022-12-16T00:40:22;2.50;99.90
23079;DHT22;11707;50.830;4.364;2022-12-16T00:42:48;2.50;99.90
23079;DHT22;11707;50.830;4.364;2022-12-16T00:45:14;2.60;99.90
23079;DHT22;11707;50.830;4.364;2022-12-16T00:47:39;2.60;99.90
23079;DHT22;11707;50.830;4.364;2022-12-16T00:50:06;2.60;99.90
23079;DHT22;11707;50.830;4.364;2022-12-16T00:52:32;2.50;99.90
23079;DHT22;11707;50.830;4.364;2022-12-16T00:54:58;2.50;99.90
23079;DHT22;11707;50.830;4.364;2022-12-16T00:57:24;2.50;99.90
23079;DHT22;11707;50.830;4.364;2022-12-16T00:59:50;2.50;99.90
23079;DHT22;11707;50.830;4.364;2022-12-16T01:02:16;2.60;99.90
23079;DHT22;11707;50.830;4.364;2022-12-16T01:04:42;2.70;99.90
23079;DHT22;11707;50.830;4.364;2022-12-16T01:07:08;2.80;99.90
23079;DHT22;11707;50.830;4.364;2022-12-16T01:09:34;2.80;99.90
23079;DHT22;11707;50.830;4.364;2022-12-16T01:12:00;2.70;99.90
23079;DHT22;11707;50.830;4.364;2022-12-16T01:14:26;2.80;99.90
23079;DHT22;11707;50.830;4.364;2022-12-16T01:16:51;2.80;99.90
23079;DHT22;11707;50.830;4.364;2022-12-16T01:19:17;2.70;99.90
23079;DHT22;11707;50.830;4.364;2022-12-16T01:21:44;2.60;99.90
23079;DHT22;11707;50.830;4.364;2022-12-16T01:24:10;2.20;99.90
23079;DHT22;11707;50.830;4.364;2022-12-16T01:26:36;2.20;99.90
23079;DHT22;11707;50.830;4.364;2022-12-16T01:29:04;2.20;99.90
23079;DHT22;11707;50.830;4.364;2022-12-16T01:31:30;2.10;99.90
23079;DHT22;11707;50.830;4.364;2022-12-16T01:33:56;1.70;99.90
23079;DHT22;11707;50.830;4.364;2022-12-16T01:36:22;1.70;99.90
23079;DHT22;11707;50.830;4.364;2022-12-16T01:38:48;1.70;99.90
23079;DHT22;11707;50.830;4.364;2022-12-16T01:41:15;1.60;99.90
23079;DHT22;11707;50.830;4.364;2022-12-16T01:43:42;1.80;99.90
23079;DHT22;11707;50.830;4.364;2022-12-16T01:46:17;2.00;99.90
23079;DHT22;11707;50.830;4.364;2022-12-16T01:48:57;1.80;99.90
23079;DHT22;11707;50.830;4.364;2022-12-16T01:51:34;1.70;99.90
23079;DHT22;11707;50.830;4.364;2022-12-16T01:54:26;1.60;99.90
23079;DHT22;11707;50.830;4.364;2022-12-16T01:56:57;1.70;99.90
23079;DHT22;11707;50.830;4.364;2022-12-16T01:59:24;1.90;99.90
23079;DHT22;11707;50.830;4.364;2022-12-16T02:01:52;2.00;99.90
23079;DHT22;11707;50.830;4.364;2022-12-16T02:04:17;2.10;99.90
23079;DHT22;11707;50.830;4.364;2022-12-16T02:06:43;2.10;99.90
23079;DHT22;11707;50.830;4.364;2022-12-16T02:09:11;2.00;99.90
23079;DHT22;11707;50.830;4.364;2022-12-16T02:20:33;2.10;99.90
23079;DHT22;11707;50.830;4.364;2022-12-16T02:39:59;2.50;99.90
23079;DHT22;11707;50.830;4.364;2022-12-16T02:42:36;2.40;99.90
23079;DHT22;11707;50.830;4.364;2022-12-16T02:47:32;1.70;99.90
23079;DHT22;11707;50.830;4.364;2022-12-16T02:49:58;1.50;99.90
23079;DHT22;11707;50.830;4.364;2022-12-16T02:52:26;1.30;99.90
23079;DHT22;11707;50.830;4.364;2022-12-16T02:55:05;1.20;99.90
23079;DHT22;11707;50.830;4.364;2022-12-16T03:00:08;1.20;99.90
23079;DHT22;11707;50.830;4.364;2022-12-16T03:05:33;1.10;99.90
23079;DHT22;11707;50.830;4.364;2022-12-16T03:08:04;1.10;99.90
23079;DHT22;11707;50.830;4.364;2022-12-16T03:10:35;1.10;99.90
23079;DHT22;11707;50.830;4.364;2022-12-16T03:13:04;1.10;99.90
23079;DHT22;11707;50.830;4.364;2022-12-16T03:15:35;1.00;99.90
23079;DHT22;11707;50.830;4.364;2022-12-16T03:18:02;1.20;99.90
23079;DHT22;11707;50.830;4.364;2022-12-16T03:20:49;1.10;99.90
23079;DHT22;11707;50.830;4.364;2022-12-16T03:23:19;1.20;99.90
23079;DHT22;11707;50.830;4.364;2022-12-16T03:25:48;1.40;99.90
23079;DHT22;11707;50.830;4.364;2022-12-16T03:28:49;1.40;99.90
23079;DHT22;11707;50.830;4.364;2022-12-16T03:31:29;1.50;99.90
23079;DHT22;11707;50.830;4.364;2022-12-16T03:34:07;1.30;99.90
23079;DHT22;11707;50.830;4.364;2022-12-16T03:36:37;1.30;99.90
23079;DHT22;11707;50.830;4.364;2022-12-16T03:39:05;1.30;99.90
23079;DHT22;11707;50.830;4.364;2022-12-16T03:41:33;1.20;99.90
23079;DHT22;11707;50.830;4.364;2022-12-16T03:43:59;1.20;99.90
23079;DHT22;11707;50.830;4.364;2022-12-16T03:46:25;1.20;99.90
23079;DHT22;11707;50.830;4.364;2022-12-16T03:48:51;1.20;99.90
23079;DHT22;11707;50.830;4.364;2022-12-16T03:51:18;1.10;99.90
23079;DHT22;11707;50.830;4.364;2022-12-16T03:53:44;1.20;99.90
23079;DHT22;11707;50.830;4.364;2022-12-16T03:56:11;1.40;99.90
23079;DHT22;11707;50.830;4.364;2022-12-16T03:58:38;1.30;99.90
23079;DHT22;11707;50.830;4.364;2022-12-16T04:01:08;1.40;99.90
23079;DHT22;11707;50.830;4.364;2022-12-16T04:03:35;1.40;99.90
23079;DHT22;11707;50.830;4.364;2022-12-16T04:06:01;1.40;99.90
23079;DHT22;11707;50.830;4.364;2022-12-16T04:08:30;1.40;99.90
23079;DHT22;11707;50.830;4.364;2022-12-16T04:10:56;1.50;99.90
23079;DHT22;11707;50.830;4.364;2022-12-16T04:13:40;1.50;99.90
23079;DHT22;11707;50.830;4.364;2022-12-16T04:16:26;1.50;99.90
23079;DHT22;11707;50.830;4.364;2022-12-16T04:19:32;1.50;99.90
23079;DHT22;11707;50.830;4.364;2022-12-16T04:22:26;1.50;99.90
23079;DHT22;11707;50.830;4.364;2022-12-16T04:25:15;1.50;99.90
23079;DHT22;11707;50.830;4.364;2022-12-16T04:27:42;1.50;99.90
23079;DHT22;11707;50.830;4.364;2022-12-16T04:30:18;1.70;99.90
23079;DHT22;11707;50.830;4.364;2022-12-16T04:35:29;1.60;99.90
23079;DHT22;11707;50.830;4.364;2022-12-16T04:38:14;1.70;99.90
23079;DHT22;11707;50.830;4.364;2022-12-16T04:40:58;1.70;99.90
23079;DHT22;11707;50.830;4.364;2022-12-16T04:43:42;1.90;99.90
23079;DHT22;11707;50.830;4.364;2022-12-16T04:46:27;2.00;99.90
23079;DHT22;11707;50.830;4.364;2022-12-16T04:49:11;2.10;99.90
23079;DHT22;11707;50.830;4.364;2022-12-16T04:51:55;2.20;99.90
23079;DHT22;11707;50.830;4.364;2022-12-16T04:54:39;2.20;99.90
23079;DHT22;11707;50.830;4.364;2022-12-16T04:57:24;2.30;99.90
23079;DHT22;11707;50.830;4.364;2022-12-16T05:00:09;2.20;99.90
23079;DHT22;11707;50.830;4.364;2022-12-16T05:02:53;2.00;99.90
23079;DHT22;11707;50.830;4.364;2022-12-16T05:05:39;2.00;99.90
23079;DHT22;11707;50.830;4.364;2022-12-16T05:08:23;2.00;99.90
23079;DHT22;11707;50.830;4.364;2022-12-16T05:11:07;2.20;99.90
23079;DHT22;11707;50.830;4.364;2022-12-16T05:13:51;2.20;99.90
23079;DHT22;11707;50.830;4.364;2022-12-16T05:16:35;2.10;99.90
23079;DHT22;11707;50.830;4.364;2022-12-16T05:19:20;2.20;99.90
23079;DHT22;11707;50.830;4.364;2022-12-16T05:22:04;2.20;99.90
23079;DHT22;11707;50.830;4.364;2022-12-16T05:24:48;2.30;99.90
23079;DHT22;11707;50.830;4.364;2022-12-16T05:27:31;2.30;99.90
23079;DHT22;11707;50.830;4.364;2022-12-16T05:30:16;2.40;99.90
23079;DHT22;11707;50.830;4.364;2022-12-16T05:33:00;2.30;99.90
23079;DHT22;11707;50.830;4.364;2022-12-16T05:35:45;2.40;99.90
23079;DHT22;11707;50.830;4.364;2022-12-16T05:38:28;2.30;99.90
23079;DHT22;11707;50.830;4.364;2022-12-16T05:41:13;2.30;99.90
23079;DHT22;11707;50.830;4.364;2022-12-16T05:43:57;2.40;99.90
23079;DHT22;11707;50.830;4.364;2022-12-16T05:46:41;2.40;99.90
23079;DHT22;11707;50.830;4.364;2022-12-16T05:49:33;2.40;99.90
23079;DHT22;11707;50.830;4.364;2022-12-16T05:52:17;2.40;99.90
23079;DHT22;11707;50.830;4.364;2022-12-16T05:55:01;2.30;99.90
23079;DHT22;11707;50.830;4.364;2022-12-16T05:57:50;2.40;99.90
23079;DHT22;11707;50.830;4.364;2022-12-16T06:00:34;2.40;99.90
23079;DHT22;11707;50.830;4.364;2022-12-16T06:03:22;2.40;99.90
23079;DHT22;11707;50.830;4.364;2022-12-16T06:06:06;2.40;99.90
23079;DHT22;11707;50.830;4.364;2022-12-16T06:08:53;2.40;99.90
23079;DHT22;11707;50.830;4.364;2022-12-16T06:11:37;2.40;99.90
23079;DHT22;11707;50.830;4.364;2022-12-16T06:14:22;2.30;99.90
23079;DHT22;11707;50.830;4.364;2022-12-16T06:17:06;2.40;99.90
23079;DHT22;11707;50.830;4.364;2022-12-16T06:19:50;2.30;99.90
23079;DHT22;11707;50.830;4.364;2022-12-16T06:22:34;2.40;99.90
23079;DHT22;11707;50.830;4.364;2022-12-16T06:25:18;2.40;99.90
23079;DHT22;11707;50.830;4.364;2022-12-16T06:28:03;2.50;99.90
23079;DHT22;11707;50.830;4.364;2022-12-16T06:30:47;2.40;99.90
23079;DHT22;11707;50.830;4.364;2022-12-16T06:33:31;2.40;99.90
23079;DHT22;11707;50.830;4.364;2022-12-16T06:36:16;2.40;99.90
23079;DHT22;11707;50.830;4.364;2022-12-16T06:39:00;2.40;99.90
23079;DHT22;11707;50.830;4.364;2022-12-16T06:41:44;2.40;99.90
23079;DHT22;11707;50.830;4.364;2022-12-16T06:44:28;2.40;99.90
23079;DHT22;11707;50.830;4.364;2022-12-16T06:47:12;2.40;99.90
23079;DHT22;11707;50.830;4.364;2022-12-16T06:49:57;2.40;99.90
23079;DHT22;11707;50.830;4.364;2022-12-16T06:52:44;2.40;99.90
23079;DHT22;11707;50.830;4.364;2022-12-16T06:55:29;2.40;99.90
23079;DHT22;11707;50.830;4.364;2022-12-16T06:58:13;2.40;99.90
23079;DHT22;11707;50.830;4.364;2022-12-16T07:00:57;2.20;99.90
23079;DHT22;11707;50.830;4.364;2022-12-16T07:03:41;2.20;99.90
23079;DHT22;11707;50.830;4.364;2022-12-16T07:06:26;2.20;99.90
23079;DHT22;11707;50.830;4.364;2022-12-16T07:09:11;2.10;99.90
23079;DHT22;11707;50.830;4.364;2022-12-16T07:11:55;2.20;99.90
23079;DHT22;11707;50.830;4.364;2022-12-16T07:14:39;2.30;99.90
23079;DHT22;11707;50.830;4.364;2022-12-16T07:17:23;2.20;99.90
23079;DHT22;11707;50.830;4.364;2022-12-16T07:20:08;2.30;99.90
23079;DHT22;11707;50.830;4.364;2022-12-16T07:22:53;2.30;99.90
23079;DHT22;11707;50.830;4.364;2022-12-16T07:25:37;2.30;99.90
23079;DHT22;11707;50.830;4.364;2022-12-16T07:28:21;2.30;99.90
23079;DHT22;11707;50.830;4.364;2022-12-16T07:31:06;2.50;99.90
23079;DHT22;11707;50.830;4.364;2022-12-16T07:33:50;2.50;99.90
23079;DHT22;11707;50.830;4.364;2022-12-16T07:36:34;2.50;99.90
23079;DHT22;11707;50.830;4.364;2022-12-16T07:39:19;2.30;99.90
23079;DHT22;11707;50.830;4.364;2022-12-16T07:42:03;2.30;99.90
23079;DHT22;11707;50.830;4.364;2022-12-16T07:45:01;2.40;99.90
23079;DHT22;11707;50.830;4.364;2022-12-16T07:47:50;2.50;99.90
23079;DHT22;11707;50.830;4.364;2022-12-16T07:50:35;2.60;99.90
23079;DHT22;11707;50.830;4.364;2022-12-16T07:53:20;2.70;99.90
23079;DHT22;11707;50.830;4.364;2022-12-16T07:56:21;2.60;99.90
23079;DHT22;11707;50.830;4.364;2022-12-16T07:59:05;2.50;99.90
23079;DHT22;11707;50.830;4.364;2022-12-16T08:01:49;2.40;99.90
23079;DHT22;11707;50.830;4.364;2022-12-16T08:04:34;2.30;99.90
23079;DHT22;11707;50.830;4.364;2022-12-16T08:07:18;2.40;99.90
23079;DHT22;11707;50.830;4.364;2022-12-16T08:10:02;2.40;99.90
23079;DHT22;11707;50.830;4.364;2022-12-16T08:12:46;2.40;99.90
23079;DHT22;11707;50.830;4.364;2022-12-16T08:15:30;2.50;99.90
23079;DHT22;11707;50.830;4.364;2022-12-16T08:18:14;2.40;99.90
23079;DHT22;11707;50.830;4.364;2022-12-16T08:20:58;2.30;99.90
23079;DHT22;11707;50.830;4.364;2022-12-16T08:23:43;2.20;99.90
23079;DHT22;11707;50.830;4.364;2022-12-16T08:26:27;2.30;99.90
23079;DHT22;11707;50.830;4.364;2022-12-16T08:29:11;2.50;99.90
23079;DHT22;11707;50.830;4.364;2022-12-16T08:31:55;2.60;99.90
23079;DHT22;11707;50.830;4.364;2022-12-16T08:34:39;2.50;99.90
23079;DHT22;11707;50.830;4.364;2022-12-16T08:37:23;2.30;99.90
23079;DHT22;11707;50.830;4.364;2022-12-16T08:40:08;2.20;99.90
23079;DHT22;11707;50.830;4.364;2022-12-16T08:42:55;2.20;99.90
23079;DHT22;11707;50.830;4.364;2022-12-16T08:45:40;2.10;99.90
23079;DHT22;11707;50.830;4.364;2022-12-16T08:48:24;2.10;99.90
23079;DHT22;11707;50.830;4.364;2022-12-16T08:51:09;2.00;99.90
23079;DHT22;11707;50.830;4.364;2022-12-16T08:53:53;1.90;99.90
23079;DHT22;11707;50.830;4.364;2022-12-16T08:56:38;1.80;99.90
23079;DHT22;11707;50.830;4.364;2022-12-16T08:59:22;1.90;99.90
23079;DHT22;11707;50.830;4.364;2022-12-16T09:02:15;1.80;99.90
23079;DHT22;11707;50.830;4.364;2022-12-16T09:04:59;1.90;99.90
23079;DHT22;11707;50.830;4.364;2022-12-16T09:07:47;1.80;99.90
23079;DHT22;11707;50.830;4.364;2022-12-16T09:10:31;1.90;99.90
23079;DHT22;11707;50.830;4.364;2022-12-16T09:13:15;2.00;99.90
23079;DHT22;11707;50.830;4.364;2022-12-16T09:15:59;2.20;99.90
23079;DHT22;11707;50.830;4.364;2022-12-16T09:18:44;2.30;99.90
23079;DHT22;11707;50.830;4.364;2022-12-16T09:21:28;2.30;99.90
23079;DHT22;11707;50.830;4.364;2022-12-16T09:24:12;2.30;99.90
23079;DHT22;11707;50.830;4.364;2022-12-16T09:26:56;2.30;99.90
23079;DHT22;11707;50.830;4.364;2022-12-16T09:29:41;2.30;99.90
23079;DHT22;11707;50.830;4.364;2022-12-16T09:32:25;2.40;99.90
23079;DHT22;11707;50.830;4.364;2022-12-16T09:35:10;2.50;99.90
23079;DHT22;11707;50.830;4.364;2022-12-16T09:37:54;2.50;99.90
23079;DHT22;11707;50.830;4.364;2022-12-16T09:40:39;2.60;99.90
23079;DHT22;11707;50.830;4.364;2022-12-16T09:46:52;2.70;99.90
23079;DHT22;11707;50.830;4.364;2022-12-16T09:49:49;2.90;99.90
23079;DHT22;11707;50.830;4.364;2022-12-16T09:52:44;2.90;99.90
23079;DHT22;11707;50.830;4.364;2022-12-16T09:55:33;2.90;99.90
23079;DHT22;11707;50.830;4.364;2022-12-16T09:58:19;2.80;99.90
23079;DHT22;11707;50.830;4.364;2022-12-16T10:01:05;2.70;99.90
23079;DHT22;11707;50.830;4.364;2022-12-16T10:03:49;2.80;99.90
23079;DHT22;11707;50.830;4.364;2022-12-16T10:06:57;2.70;99.90
23079;DHT22;11707;50.830;4.364;2022-12-16T10:15:59;2.80;99.90
23079;DHT22;11707;50.830;4.364;2022-12-16T10:25:11;2.90;99.90
23079;DHT22;11707;50.830;4.364;2022-12-16T10:28:14;2.80;99.90
23079;DHT22;11707;50.830;4.364;2022-12-16T10:31:01;2.70;99.90
23079;DHT22;11707;50.830;4.364;2022-12-16T10:33:48;2.70;99.90
23079;DHT22;11707;50.830;4.364;2022-12-16T10:36:35;2.80;99.90
23079;DHT22;11707;50.830;4.364;2022-12-16T10:42:27;2.80;99.90
23079;DHT22;11707;50.830;4.364;2022-12-16T10:45:31;2.70;99.90
23079;DHT22;11707;50.830;4.364;2022-12-16T10:48:23;2.50;99.90
23079;DHT22;11707;50.830;4.364;2022-12-16T10:51:18;2.30;99.90
23079;DHT22;11707;50.830;4.364;2022-12-16T11:00:16;2.50;99.90
23079;DHT22;11707;50.830;4.364;2022-12-16T11:03:21;2.70;99.90
23079;DHT22;11707;50.830;4.364;2022-12-16T11:06:06;2.90;99.90
23079;DHT22;11707;50.830;4.364;2022-12-16T11:08:51;3.10;99.90
23079;DHT22;11707;50.830;4.364;2022-12-16T11:11:35;3.10;99.90
23079;DHT22;11707;50.830;4.364;2022-12-16T11:14:25;3.10;99.90
23079;DHT22;11707;50.830;4.364;2022-12-16T11:17:24;3.00;99.90
23079;DHT22;11707;50.830;4.364;2022-12-16T11:20:23;2.80;99.90
23079;DHT22;11707;50.830;4.364;2022-12-16T11:23:24;2.90;99.90
23079;DHT22;11707;50.830;4.364;2022-12-16T11:26:15;3.00;99.90
23079;DHT22;11707;50.830;4.364;2022-12-16T11:29:11;3.10;99.90
23079;DHT22;11707;50.830;4.364;2022-12-16T11:32:19;3.30;99.90
23079;DHT22;11707;50.830;4.364;2022-12-16T11:35:21;3.30;99.90
23079;DHT22;11707;50.830;4.364;2022-12-16T11:41:35;3.30;99.90
23079;DHT22;11707;50.830;4.364;2022-12-16T11:44:28;3.30;99.90
23079;DHT22;11707;50.830;4.364;2022-12-16T11:47:30;3.30;99.90
23079;DHT22;11707;50.830;4.364;2022-12-16T11:50:23;3.30;99.90
23079;DHT22;11707;50.830;4.364;2022-12-16T11:53:35;3.30;99.90
23079;DHT22;11707;50.830;4.364;2022-12-16T11:56:25;3.40;99.90
23079;DHT22;11707;50.830;4.364;2022-12-16T11:59:21;3.40;99.90
23079;DHT22;11707;50.830;4.364;2022-12-16T12:02:14;3.60;99.90
23079;DHT22;11707;50.830;4.364;2022-12-16T12:04:59;3.80;99.90
23079;DHT22;11707;50.830;4.364;2022-12-16T12:07:54;3.70;99.90
23079;DHT22;11707;50.830;4.364;2022-12-16T12:16:38;3.80;99.90
23079;DHT22;11707;50.830;4.364;2022-12-16T12:22:33;3.70;99.90
23079;DHT22;11707;50.830;4.364;2022-12-16T12:32:02;4.10;99.90
23079;DHT22;11707;50.830;4.364;2022-12-16T12:38:11;4.20;99.90
23079;DHT22;11707;50.830;4.364;2022-12-16T12:41:17;4.30;99.90
23079;DHT22;11707;50.830;4.364;2022-12-16T12:47:05;3.90;99.90
23079;DHT22;11707;50.830;4.364;2022-12-16T12:50:03;3.90;99.90
23079;DHT22;11707;50.830;4.364;2022-12-16T12:59:10;4.20;99.90
23079;DHT22;11707;50.830;4.364;2022-12-16T13:01:55;4.20;99.90
23079;DHT22;11707;50.830;4.364;2022-12-16T13:04:41;4.10;99.90
23079;DHT22;11707;50.830;4.364;2022-12-16T13:07:26;4.20;99.90
23079;DHT22;11707;50.830;4.364;2022-12-16T13:10:24;4.20;99.90
23079;DHT22;11707;50.830;4.364;2022-12-16T13:16:01;4.30;99.90
23079;DHT22;11707;50.830;4.364;2022-12-16T13:18:45;4.50;99.90
23079;DHT22;11707;50.830;4.364;2022-12-16T13:24:47;4.60;99.90
23079;DHT22;11707;50.830;4.364;2022-12-16T13:27:47;4.70;99.90
23079;DHT22;11707;50.830;4.364;2022-12-16T13:30:34;4.70;99.90
23079;DHT22;11707;50.830;4.364;2022-12-16T13:33:27;4.50;99.90
23079;DHT22;11707;50.830;4.364;2022-12-16T13:36:14;4.50;99.90
23079;DHT22;11707;50.830;4.364;2022-12-16T13:39:18;4.50;99.90
23079;DHT22;11707;50.830;4.364;2022-12-16T13:42:03;4.40;99.90
23079;DHT22;11707;50.830;4.364;2022-12-16T13:50:41;4.30;99.90
23079;DHT22;11707;50.830;4.364;2022-12-16T13:53:39;4.20;99.90
23079;DHT22;11707;50.830;4.364;2022-12-16T13:56:39;4.20;99.90
23079;DHT22;11707;50.830;4.364;2022-12-16T13:59:29;4.20;99.90
23079;DHT22;11707;50.830;4.364;2022-12-16T14:02:31;4.40;99.90
23079;DHT22;11707;50.830;4.364;2022-12-16T14:05:21;4.90;99.90
23079;DHT22;11707;50.830;4.364;2022-12-16T14:08:12;6.50;99.90
23079;DHT22;11707;50.830;4.364;2022-12-16T14:11:04;7.30;99.90
23079;DHT22;11707;50.830;4.364;2022-12-16T14:16:54;7.30;99.90
23079;DHT22;11707;50.830;4.364;2022-12-16T14:25:33;7.40;99.90
23079;DHT22;11707;50.830;4.364;2022-12-16T14:28:32;7.30;99.90
23079;DHT22;11707;50.830;4.364;2022-12-16T14:31:36;7.40;99.90
23079;DHT22;11707;50.830;4.364;2022-12-16T14:34:32;7.10;99.90
23079;DHT22;11707;50.830;4.364;2022-12-16T14:37:35;6.40;99.90
23079;DHT22;11707;50.830;4.364;2022-12-16T14:40:31;5.90;99.90
23079;DHT22;11707;50.830;4.364;2022-12-16T14:43:19;5.30;99.90
23079;DHT22;11707;50.830;4.364;2022-12-16T14:46:05;5.00;99.90
23079;DHT22;11707;50.830;4.364;2022-12-16T14:48:50;4.70;99.90
23079;DHT22;11707;50.830;4.364;2022-12-16T14:51:37;4.40;99.90
23079;DHT22;11707;50.830;4.364;2022-12-16T14:54:38;4.40;99.90
23079;DHT22;11707;50.830;4.364;2022-12-16T14:57:25;4.30;99.90
23079;DHT22;11707;50.830;4.364;2022-12-16T15:02:57;4.60;99.90
23079;DHT22;11707;50.830;4.364;2022-12-16T15:05:43;4.60;99.90
23079;DHT22;11707;50.830;4.364;2022-12-16T15:08:32;4.60;99.90
23079;DHT22;11707;50.830;4.364;2022-12-16T15:11:20;4.50;99.90
23079;DHT22;11707;50.830;4.364;2022-12-16T15:14:10;4.30;99.90
23079;DHT22;11707;50.830;4.364;2022-12-16T15:16:55;4.30;99.90
23079;DHT22;11707;50.830;4.364;2022-12-16T15:19:46;4.40;99.90
23079;DHT22;11707;50.830;4.364;2022-12-16T15:22:31;4.40;99.90
23079;DHT22;11707;50.830;4.364;2022-12-16T15:25:25;4.50;99.90
23079;DHT22;11707;50.830;4.364;2022-12-16T15:28:42;4.40;99.90
23079;DHT22;11707;50.830;4.364;2022-12-16T15:31:38;4.50;99.90
23079;DHT22;11707;50.830;4.364;2022-12-16T15:34:31;4.40;99.90
23079;DHT22;11707;50.830;4.364;2022-12-16T15:37:18;4.40;99.90
23079;DHT22;11707;50.830;4.364;2022-12-16T15:40:04;4.20;99.90
23079;DHT22;11707;50.830;4.364;2022-12-16T15:42:50;4.30;99.90
23079;DHT22;11707;50.830;4.364;2022-12-16T15:45:47;4.40;99.90
23079;DHT22;11707;50.830;4.364;2022-12-16T15:48:33;4.40;99.90
23079;DHT22;11707;50.830;4.364;2022-12-16T15:51:48;4.40;99.90
23079;DHT22;11707;50.830;4.364;2022-12-16T15:54:32;4.40;99.90
23079;DHT22;11707;50.830;4.364;2022-12-16T15:57:29;4.30;99.90
23079;DHT22;11707;50.830;4.364;2022-12-16T16:00:28;4.10;99.90
23079;DHT22;11707;50.830;4.364;2022-12-16T16:03:27;4.00;99.90
23079;DHT22;11707;50.830;4.364;2022-12-16T16:12:04;3.60;99.90
23079;DHT22;11707;50.830;4.364;2022-12-16T16:14:48;3.60;99.90
23079;DHT22;11707;50.830;4.364;2022-12-16T16:17:32;3.40;99.90
23079;DHT22;11707;50.830;4.364;2022-12-16T16:20:17;3.50;99.90
23079;DHT22;11707;50.830;4.364;2022-12-16T16:23:02;3.50;99.90
23079;DHT22;11707;50.830;4.364;2022-12-16T16:25:47;3.30;99.90
23079;DHT22;11707;50.830;4.364;2022-12-16T16:28:32;3.20;99.90
23079;DHT22;11707;50.830;4.364;2022-12-16T16:31:17;3.20;99.90
23079;DHT22;11707;50.830;4.364;2022-12-16T16:34:01;3.40;99.90
23079;DHT22;11707;50.830;4.364;2022-12-16T16:36:46;3.20;99.90
23079;DHT22;11707;50.830;4.364;2022-12-16T16:39:32;3.30;99.90
23079;DHT22;11707;50.830;4.364;2022-12-16T16:42:16;3.20;99.90
23079;DHT22;11707;50.830;4.364;2022-12-16T16:45:00;2.90;99.90
23079;DHT22;11707;50.830;4.364;2022-12-16T16:47:44;2.90;99.90
23079;DHT22;11707;50.830;4.364;2022-12-16T16:50:28;2.80;99.90
23079;DHT22;11707;50.830;4.364;2022-12-16T16:53:29;2.80;99.90
23079;DHT22;11707;50.830;4.364;2022-12-16T16:56:14;2.60;99.90
23079;DHT22;11707;50.830;4.364;2022-12-16T16:58:58;2.70;99.90
23079;DHT22;11707;50.830;4.364;2022-12-16T17:01:42;2.70;99.90
23079;DHT22;11707;50.830;4.364;2022-12-16T17:04:31;2.60;99.90
23079;DHT22;11707;50.830;4.364;2022-12-16T17:07:15;2.70;99.90
23079;DHT22;11707;50.830;4.364;2022-12-16T17:09:59;2.80;99.90
23079;DHT22;11707;50.830;4.364;2022-12-16T17:12:43;2.90;99.90
23079;DHT22;11707;50.830;4.364;2022-12-16T17:15:31;3.00;99.90
23079;DHT22;11707;50.830;4.364;2022-12-16T17:18:17;2.90;99.90
23079;DHT22;11707;50.830;4.364;2022-12-16T17:21:01;2.80;99.90
23079;DHT22;11707;50.830;4.364;2022-12-16T17:23:45;2.80;99.90
23079;DHT22;11707;50.830;4.364;2022-12-16T17:26:31;2.70;99.90
23079;DHT22;11707;50.830;4.364;2022-12-16T17:29:26;2.70;99.90
23079;DHT22;11707;50.830;4.364;2022-12-16T17:32:10;2.70;99.90
23079;DHT22;11707;50.830;4.364;2022-12-16T17:34:54;2.70;99.90
23079;DHT22;11707;50.830;4.364;2022-12-16T17:37:38;2.70;99.90
23079;DHT22;11707;50.830;4.364;2022-12-16T17:40:22;2.70;99.90
23079;DHT22;11707;50.830;4.364;2022-12-16T17:43:07;2.70;99.90
23079;DHT22;11707;50.830;4.364;2022-12-16T17:45:58;2.80;99.90
23079;DHT22;11707;50.830;4.364;2022-12-16T17:48:42;2.80;99.90
23079;DHT22;11707;50.830;4.364;2022-12-16T17:51:26;2.90;99.90
23079;DHT22;11707;50.830;4.364;2022-12-16T17:54:10;2.90;99.90
23079;DHT22;11707;50.830;4.364;2022-12-16T17:56:55;2.90;99.90
23079;DHT22;11707;50.830;4.364;2022-12-16T17:59:39;3.10;99.90
23079;DHT22;11707;50.830;4.364;2022-12-16T18:02:23;3.20;99.90
23079;DHT22;11707;50.830;4.364;2022-12-16T18:05:07;3.20;99.90
23079;DHT22;11707;50.830;4.364;2022-12-16T18:07:52;3.30;99.90
23079;DHT22;11707;50.830;4.364;2022-12-16T18:10:36;3.30;99.90
23079;DHT22;11707;50.830;4.364;2022-12-16T18:13:20;3.30;99.90
23079;DHT22;11707;50.830;4.364;2022-12-16T18:16:04;3.40;99.90
23079;DHT22;11707;50.830;4.364;2022-12-16T18:18:49;3.50;99.90
23079;DHT22;11707;50.830;4.364;2022-12-16T18:21:33;3.50;99.90
23079;DHT22;11707;50.830;4.364;2022-12-16T18:24:17;3.40;99.90
23079;DHT22;11707;50.830;4.364;2022-12-16T18:27:01;3.30;99.90
23079;DHT22;11707;50.830;4.364;2022-12-16T18:29:46;3.00;99.90
23079;DHT22;11707;50.830;4.364;2022-12-16T18:32:30;3.00;99.90
23079;DHT22;11707;50.830;4.364;2022-12-16T18:35:14;3.10;99.90
23079;DHT22;11707;50.830;4.364;2022-12-16T18:37:58;3.10;99.90
23079;DHT22;11707;50.830;4.364;2022-12-16T18:40:43;3.10;99.90
23079;DHT22;11707;50.830;4.364;2022-12-16T18:43:27;3.10;99.90
23079;DHT22;11707;50.830;4.364;2022-12-16T18:46:11;3.20;99.90
23079;DHT22;11707;50.830;4.364;2022-12-16T18:48:55;3.20;99.90
23079;DHT22;11707;50.830;4.364;2022-12-16T18:51:39;3.30;99.90
23079;DHT22;11707;50.830;4.364;2022-12-16T18:54:23;3.30;99.90
23079;DHT22;11707;50.830;4.364;2022-12-16T18:57:08;3.40;99.90
23079;DHT22;11707;50.830;4.364;2022-12-16T18:59:52;3.20;99.90
23079;DHT22;11707;50.830;4.364;2022-12-16T19:02:36;3.30;99.90
23079;DHT22;11707;50.830;4.364;2022-12-16T19:05:20;3.20;99.90
23079;DHT22;11707;50.830;4.364;2022-12-16T19:08:04;3.10;99.90
23079;DHT22;11707;50.830;4.364;2022-12-16T19:10:49;3.00;99.90
23079;DHT22;11707;50.830;4.364;2022-12-16T19:13:38;2.70;99.90
23079;DHT22;11707;50.830;4.364;2022-12-16T19:16:22;2.40;99.90
23079;DHT22;11707;50.830;4.364;2022-12-16T19:19:07;2.20;99.90
23079;DHT22;11707;50.830;4.364;2022-12-16T19:21:51;2.30;99.90
23079;DHT22;11707;50.830;4.364;2022-12-16T19:24:35;2.20;99.90
23079;DHT22;11707;50.830;4.364;2022-12-16T19:27:19;2.10;99.90
23079;DHT22;11707;50.830;4.364;2022-12-16T19:30:04;1.90;99.90
23079;DHT22;11707;50.830;4.364;2022-12-16T19:32:48;2.00;99.90